sensor_id;sensor_type;location;lat;lon;timestamp;P1;durP1;ratioP1;P2;durP2;ratioP2
29538;SDS011;16482;51.046;4.498;2022-11-25T00:02:19;4.95;;;2.45;;
29538;SDS011;16482;51.046;4.498;2022-11-25T00:07:50;4.10;;;2.10;;
29538;SDS011;16482;51.046;4.498;2022-11-25T00:10:16;6.35;;;2.10;;
29538;SDS011;16482;51.046;4.498;2022-11-25T00:15:28;4.85;;;2.17;;
29538;SDS011;16482;51.046;4.498;2022-11-25T00:17:53;4.32;;;1.98;;
29538;SDS011;16482;51.046;4.498;2022-11-25T00:20:19;3.65;;;1.98;;
29538;SDS011;16482;51.046;4.498;2022-11-25T00:25:31;7.03;;;2.80;;
29538;SDS011;16482;51.046;4.498;2022-11-25T00:27:56;2.83;;;1.70;;
29538;SDS011;16482;51.046;4.498;2022-11-25T00:30:22;3.83;;;1.90;;
29538;SDS011;16482;51.046;4.498;2022-11-25T00:32:48;4.38;;;2.30;;
29538;SDS011;16482;51.046;4.498;2022-11-25T00:35:14;4.78;;;2.30;;
29538;SDS011;16482;51.046;4.498;2022-11-25T00:37:40;3.28;;;1.80;;
29538;SDS011;16482;51.046;4.498;2022-11-25T00:40:06;3.85;;;2.10;;
29538;SDS011;16482;51.046;4.498;2022-11-25T00:42:32;4.55;;;2.25;;
29538;SDS011;16482;51.046;4.498;2022-11-25T00:48:02;3.63;;;2.00;;
29538;SDS011;16482;51.046;4.498;2022-11-25T00:56:34;2.97;;;1.55;;
29538;SDS011;16482;51.046;4.498;2022-11-25T00:59:01;3.90;;;1.90;;
29538;SDS011;16482;51.046;4.498;2022-11-25T01:04:32;3.42;;;1.60;;
29538;SDS011;16482;51.046;4.498;2022-11-25T01:09:43;3.05;;;1.50;;
29538;SDS011;16482;51.046;4.498;2022-11-25T01:14:54;2.75;;;1.30;;
29538;SDS011;16482;51.046;4.498;2022-11-25T01:17:22;4.38;;;1.95;;
29538;SDS011;16482;51.046;4.498;2022-11-25T01:19:47;3.63;;;1.98;;
29538;SDS011;16482;51.046;4.498;2022-11-25T01:35:43;3.78;;;1.67;;
29538;SDS011;16482;51.046;4.498;2022-11-25T01:38:09;2.25;;;1.20;;
29538;SDS011;16482;51.046;4.498;2022-11-25T01:40:34;2.40;;;1.30;;
29538;SDS011;16482;51.046;4.498;2022-11-25T01:43:00;2.08;;;1.08;;
29538;SDS011;16482;51.046;4.498;2022-11-25T01:45:35;2.58;;;1.42;;
29538;SDS011;16482;51.046;4.498;2022-11-25T01:50:36;3.17;;;1.20;;
29538;SDS011;16482;51.046;4.498;2022-11-25T01:53:05;3.13;;;1.20;;
29538;SDS011;16482;51.046;4.498;2022-11-25T01:55:35;2.55;;;1.08;;
29538;SDS011;16482;51.046;4.498;2022-11-25T01:58:09;2.50;;;1.08;;
29538;SDS011;16482;51.046;4.498;2022-11-25T02:00:42;1.70;;;0.80;;
29538;SDS011;16482;51.046;4.498;2022-11-25T02:03:16;1.95;;;1.02;;
29538;SDS011;16482;51.046;4.498;2022-11-25T02:09:09;1.50;;;0.95;;
29538;SDS011;16482;51.046;4.498;2022-11-25T02:11:39;2.10;;;0.90;;
29538;SDS011;16482;51.046;4.498;2022-11-25T02:16:56;1.92;;;0.88;;
29538;SDS011;16482;51.046;4.498;2022-11-25T02:19:30;1.70;;;1.00;;
29538;SDS011;16482;51.046;4.498;2022-11-25T02:22:05;2.28;;;1.20;;
29538;SDS011;16482;51.046;4.498;2022-11-25T02:24:44;2.45;;;1.00;;
29538;SDS011;16482;51.046;4.498;2022-11-25T02:27:15;1.58;;;0.93;;
29538;SDS011;16482;51.046;4.498;2022-11-25T02:29:42;1.90;;;0.90;;
29538;SDS011;16482;51.046;4.498;2022-11-25T02:32:08;1.90;;;1.00;;
29538;SDS011;16482;51.046;4.498;2022-11-25T02:34:35;1.60;;;0.90;;
29538;SDS011;16482;51.046;4.498;2022-11-25T02:37:10;1.60;;;1.00;;
29538;SDS011;16482;51.046;4.498;2022-11-25T02:39:37;1.17;;;0.70;;
29538;SDS011;16482;51.046;4.498;2022-11-25T02:42:03;1.20;;;0.77;;
29538;SDS011;16482;51.046;4.498;2022-11-25T02:47:36;2.10;;;1.00;;
29538;SDS011;16482;51.046;4.498;2022-11-25T02:50:04;1.20;;;0.80;;
29538;SDS011;16482;51.046;4.498;2022-11-25T02:52:30;3.03;;;1.00;;
29538;SDS011;16482;51.046;4.498;2022-11-25T02:55:02;1.88;;;0.93;;
29538;SDS011;16482;51.046;4.498;2022-11-25T02:57:28;1.83;;;1.00;;
29538;SDS011;16482;51.046;4.498;2022-11-25T02:59:56;2.03;;;0.90;;
29538;SDS011;16482;51.046;4.498;2022-11-25T03:02:22;2.47;;;1.02;;
29538;SDS011;16482;51.046;4.498;2022-11-25T03:07:34;1.45;;;0.80;;
29538;SDS011;16482;51.046;4.498;2022-11-25T03:10:03;2.58;;;0.88;;
29538;SDS011;16482;51.046;4.498;2022-11-25T03:12:29;2.10;;;0.90;;
29538;SDS011;16482;51.046;4.498;2022-11-25T03:14:55;1.42;;;0.80;;
29538;SDS011;16482;51.046;4.498;2022-11-25T03:20:26;1.38;;;0.80;;
29538;SDS011;16482;51.046;4.498;2022-11-25T03:25:38;1.10;;;0.70;;
29538;SDS011;16482;51.046;4.498;2022-11-25T03:28:06;1.40;;;0.77;;
29538;SDS011;16482;51.046;4.498;2022-11-25T03:30:32;1.38;;;0.98;;
29538;SDS011;16482;51.046;4.498;2022-11-25T03:32:58;1.17;;;0.73;;
29538;SDS011;16482;51.046;4.498;2022-11-25T03:35:24;1.10;;;0.60;;
29538;SDS011;16482;51.046;4.498;2022-11-25T03:37:49;0.63;;;0.57;;
29538;SDS011;16482;51.046;4.498;2022-11-25T03:40:15;1.38;;;0.80;;
29538;SDS011;16482;51.046;4.498;2022-11-25T03:42:41;1.70;;;0.88;;
29538;SDS011;16482;51.046;4.498;2022-11-25T03:45:08;1.35;;;0.70;;
29538;SDS011;16482;51.046;4.498;2022-11-25T03:50:22;0.85;;;0.70;;
29538;SDS011;16482;51.046;4.498;2022-11-25T03:52:50;2.05;;;0.80;;
29538;SDS011;16482;51.046;4.498;2022-11-25T03:55:16;1.40;;;0.77;;
29538;SDS011;16482;51.046;4.498;2022-11-25T04:00:49;1.25;;;0.75;;
29538;SDS011;16482;51.046;4.498;2022-11-25T04:03:23;1.50;;;0.73;;
29538;SDS011;16482;51.046;4.498;2022-11-25T04:05:49;2.03;;;0.90;;
29538;SDS011;16482;51.046;4.498;2022-11-25T04:08:15;1.60;;;1.10;;
29538;SDS011;16482;51.046;4.498;2022-11-25T04:20:48;1.45;;;0.93;;
29538;SDS011;16482;51.046;4.498;2022-11-25T04:23:14;1.33;;;0.90;;
29538;SDS011;16482;51.046;4.498;2022-11-25T04:29:02;1.55;;;0.70;;
29538;SDS011;16482;51.046;4.498;2022-11-25T04:31:28;1.08;;;0.77;;
29538;SDS011;16482;51.046;4.498;2022-11-25T04:36:42;1.52;;;0.90;;
29538;SDS011;16482;51.046;4.498;2022-11-25T04:39:10;1.83;;;0.90;;
29538;SDS011;16482;51.046;4.498;2022-11-25T04:41:38;2.63;;;1.20;;
29538;SDS011;16482;51.046;4.498;2022-11-25T04:44:09;2.35;;;1.13;;
29538;SDS011;16482;51.046;4.498;2022-11-25T04:46:39;1.00;;;0.85;;
29538;SDS011;16482;51.046;4.498;2022-11-25T04:49:16;1.65;;;0.70;;
29538;SDS011;16482;51.046;4.498;2022-11-25T04:51:45;1.42;;;0.90;;
29538;SDS011;16482;51.046;4.498;2022-11-25T04:54:13;1.83;;;1.08;;
29538;SDS011;16482;51.046;4.498;2022-11-25T04:56:39;1.60;;;0.90;;
29538;SDS011;16482;51.046;4.498;2022-11-25T04:59:10;1.67;;;0.95;;
29538;SDS011;16482;51.046;4.498;2022-11-25T05:08:05;2.53;;;1.20;;
29538;SDS011;16482;51.046;4.498;2022-11-25T05:13:17;1.60;;;0.75;;
29538;SDS011;16482;51.046;4.498;2022-11-25T05:31:55;2.17;;;1.00;;
29538;SDS011;16482;51.046;4.498;2022-11-25T05:37:30;1.98;;;1.38;;
29538;SDS011;16482;51.046;4.498;2022-11-25T05:39:57;2.47;;;1.00;;
29538;SDS011;16482;51.046;4.498;2022-11-25T05:42:25;2.15;;;1.10;;
29538;SDS011;16482;51.046;4.498;2022-11-25T05:44:57;2.25;;;1.20;;
29538;SDS011;16482;51.046;4.498;2022-11-25T05:47:31;2.80;;;1.30;;
29538;SDS011;16482;51.046;4.498;2022-11-25T05:49:57;2.35;;;1.10;;
29538;SDS011;16482;51.046;4.498;2022-11-25T05:52:27;2.55;;;1.35;;
29538;SDS011;16482;51.046;4.498;2022-11-25T05:54:56;2.28;;;1.17;;
29538;SDS011;16482;51.046;4.498;2022-11-25T05:57:22;2.22;;;1.08;;
29538;SDS011;16482;51.046;4.498;2022-11-25T06:02:51;2.72;;;1.30;;
29538;SDS011;16482;51.046;4.498;2022-11-25T06:05:17;1.90;;;1.15;;
29538;SDS011;16482;51.046;4.498;2022-11-25T06:10:27;2.55;;;1.20;;
29538;SDS011;16482;51.046;4.498;2022-11-25T06:12:54;2.47;;;1.30;;
29538;SDS011;16482;51.046;4.498;2022-11-25T06:15:20;4.13;;;1.55;;
29538;SDS011;16482;51.046;4.498;2022-11-25T06:24:12;1.80;;;1.13;;
29538;SDS011;16482;51.046;4.498;2022-11-25T06:26:45;4.43;;;1.35;;
29538;SDS011;16482;51.046;4.498;2022-11-25T06:29:13;2.58;;;1.20;;
29538;SDS011;16482;51.046;4.498;2022-11-25T06:31:47;2.42;;;0.90;;
29538;SDS011;16482;51.046;4.498;2022-11-25T06:34:13;2.13;;;1.08;;
29538;SDS011;16482;51.046;4.498;2022-11-25T06:36:39;2.22;;;1.08;;
29538;SDS011;16482;51.046;4.498;2022-11-25T06:39:05;2.05;;;1.15;;
29538;SDS011;16482;51.046;4.498;2022-11-25T06:41:31;2.55;;;1.20;;
29538;SDS011;16482;51.046;4.498;2022-11-25T06:43:57;2.50;;;1.05;;
29538;SDS011;16482;51.046;4.498;2022-11-25T06:46:23;2.80;;;1.20;;
29538;SDS011;16482;51.046;4.498;2022-11-25T06:48:48;3.72;;;1.20;;
29538;SDS011;16482;51.046;4.498;2022-11-25T06:51:15;2.33;;;1.20;;
29538;SDS011;16482;51.046;4.498;2022-11-25T06:53:41;1.92;;;1.15;;
29538;SDS011;16482;51.046;4.498;2022-11-25T06:56:09;2.05;;;1.23;;
29538;SDS011;16482;51.046;4.498;2022-11-25T06:58:40;3.33;;;1.50;;
29538;SDS011;16482;51.046;4.498;2022-11-25T07:01:07;2.60;;;1.52;;
29538;SDS011;16482;51.046;4.498;2022-11-25T07:03:46;2.47;;;1.42;;
29538;SDS011;16482;51.046;4.498;2022-11-25T07:06:15;3.08;;;1.33;;
29538;SDS011;16482;51.046;4.498;2022-11-25T07:08:42;2.88;;;1.45;;
29538;SDS011;16482;51.046;4.498;2022-11-25T07:17:34;2.63;;;1.30;;
29538;SDS011;16482;51.046;4.498;2022-11-25T07:20:03;2.72;;;1.30;;
29538;SDS011;16482;51.046;4.498;2022-11-25T07:22:34;2.88;;;1.42;;
29538;SDS011;16482;51.046;4.498;2022-11-25T07:25:05;2.45;;;1.25;;
29538;SDS011;16482;51.046;4.498;2022-11-25T07:27:35;3.28;;;1.23;;
29538;SDS011;16482;51.046;4.498;2022-11-25T07:30:01;2.00;;;1.27;;
29538;SDS011;16482;51.046;4.498;2022-11-25T07:32:37;2.15;;;1.38;;
29538;SDS011;16482;51.046;4.498;2022-11-25T07:35:05;1.73;;;1.05;;
29538;SDS011;16482;51.046;4.498;2022-11-25T07:37:38;2.15;;;1.30;;
29538;SDS011;16482;51.046;4.498;2022-11-25T07:40:04;2.85;;;1.42;;
29538;SDS011;16482;51.046;4.498;2022-11-25T07:42:31;1.60;;;1.08;;
29538;SDS011;16482;51.046;4.498;2022-11-25T07:45:04;2.42;;;1.30;;
29538;SDS011;16482;51.046;4.498;2022-11-25T07:47:38;2.25;;;1.30;;
29538;SDS011;16482;51.046;4.498;2022-11-25T07:50:06;1.73;;;1.20;;
29538;SDS011;16482;51.046;4.498;2022-11-25T07:52:36;1.95;;;1.20;;
29538;SDS011;16482;51.046;4.498;2022-11-25T07:55:06;2.17;;;1.23;;
29538;SDS011;16482;51.046;4.498;2022-11-25T07:57:33;2.78;;;1.25;;
29538;SDS011;16482;51.046;4.498;2022-11-25T08:00:05;2.50;;;1.30;;
29538;SDS011;16482;51.046;4.498;2022-11-25T08:02:34;2.13;;;1.25;;
29538;SDS011;16482;51.046;4.498;2022-11-25T08:05:08;4.60;;;1.45;;
29538;SDS011;16482;51.046;4.498;2022-11-25T08:07:37;2.25;;;1.38;;
29538;SDS011;16482;51.046;4.498;2022-11-25T08:10:09;2.97;;;1.40;;
29538;SDS011;16482;51.046;4.498;2022-11-25T08:12:35;2.28;;;1.30;;
29538;SDS011;16482;51.046;4.498;2022-11-25T08:17:47;2.60;;;1.40;;
29538;SDS011;16482;51.046;4.498;2022-11-25T08:20:18;2.25;;;1.20;;
29538;SDS011;16482;51.046;4.498;2022-11-25T08:22:44;16.98;;;1.60;;
29538;SDS011;16482;51.046;4.498;2022-11-25T08:25:10;2.08;;;1.50;;
29538;SDS011;16482;51.046;4.498;2022-11-25T08:27:36;5.88;;;1.23;;
29538;SDS011;16482;51.046;4.498;2022-11-25T08:30:05;4.85;;;1.50;;
29538;SDS011;16482;51.046;4.498;2022-11-25T08:32:36;3.38;;;1.48;;
29538;SDS011;16482;51.046;4.498;2022-11-25T08:37:47;3.65;;;1.52;;
29538;SDS011;16482;51.046;4.498;2022-11-25T08:40:13;2.38;;;1.52;;
29538;SDS011;16482;51.046;4.498;2022-11-25T08:42:40;2.58;;;1.40;;
29538;SDS011;16482;51.046;4.498;2022-11-25T08:51:13;2.85;;;1.50;;
29538;SDS011;16482;51.046;4.498;2022-11-25T08:53:43;3.47;;;1.40;;
29538;SDS011;16482;51.046;4.498;2022-11-25T08:56:10;4.28;;;1.75;;
29538;SDS011;16482;51.046;4.498;2022-11-25T08:58:37;5.88;;;1.73;;
29538;SDS011;16482;51.046;4.498;2022-11-25T09:01:05;5.90;;;2.30;;
29538;SDS011;16482;51.046;4.498;2022-11-25T09:03:32;7.30;;;2.05;;
29538;SDS011;16482;51.046;4.498;2022-11-25T09:06:01;5.75;;;2.42;;
29538;SDS011;16482;51.046;4.498;2022-11-25T09:08:29;4.82;;;2.20;;
29538;SDS011;16482;51.046;4.498;2022-11-25T09:10:55;5.65;;;2.22;;
29538;SDS011;16482;51.046;4.498;2022-11-25T09:13:24;4.70;;;2.30;;
29538;SDS011;16482;51.046;4.498;2022-11-25T09:19:14;5.18;;;2.13;;
29538;SDS011;16482;51.046;4.498;2022-11-25T09:28:27;6.03;;;2.70;;
29538;SDS011;16482;51.046;4.498;2022-11-25T09:30:54;5.85;;;2.30;;
29538;SDS011;16482;51.046;4.498;2022-11-25T09:33:23;5.57;;;2.20;;
29538;SDS011;16482;51.046;4.498;2022-11-25T09:36:00;4.93;;;2.20;;
29538;SDS011;16482;51.046;4.498;2022-11-25T09:38:38;6.38;;;2.25;;
29538;SDS011;16482;51.046;4.498;2022-11-25T09:41:09;7.97;;;2.30;;
29538;SDS011;16482;51.046;4.498;2022-11-25T09:55:35;5.28;;;2.33;;
29538;SDS011;16482;51.046;4.498;2022-11-25T10:00:44;4.80;;;1.80;;
29538;SDS011;16482;51.046;4.498;2022-11-25T10:03:14;5.57;;;1.88;;
29538;SDS011;16482;51.046;4.498;2022-11-25T10:05:44;3.25;;;1.67;;
29538;SDS011;16482;51.046;4.498;2022-11-25T10:08:25;4.78;;;1.92;;
29538;SDS011;16482;51.046;4.498;2022-11-25T10:11:06;5.00;;;2.42;;
29538;SDS011;16482;51.046;4.498;2022-11-25T10:13:54;3.53;;;1.77;;
29538;SDS011;16482;51.046;4.498;2022-11-25T10:19:01;5.97;;;2.13;;
29538;SDS011;16482;51.046;4.498;2022-11-25T10:21:36;3.90;;;1.90;;
29538;SDS011;16482;51.046;4.498;2022-11-25T10:27:26;4.43;;;2.15;;
29538;SDS011;16482;51.046;4.498;2022-11-25T10:30:20;5.03;;;1.70;;
29538;SDS011;16482;51.046;4.498;2022-11-25T10:32:59;3.75;;;1.90;;
29538;SDS011;16482;51.046;4.498;2022-11-25T10:35:37;6.38;;;2.10;;
29538;SDS011;16482;51.046;4.498;2022-11-25T10:38:10;5.10;;;2.15;;
29538;SDS011;16482;51.046;4.498;2022-11-25T10:40:42;4.10;;;2.00;;
29538;SDS011;16482;51.046;4.498;2022-11-25T10:43:12;7.18;;;2.10;;
29538;SDS011;16482;51.046;4.498;2022-11-25T10:46:42;5.78;;;1.80;;
29538;SDS011;16482;51.046;4.498;2022-11-25T10:51:42;5.40;;;1.80;;
29538;SDS011;16482;51.046;4.498;2022-11-25T10:54:21;4.68;;;2.10;;
29538;SDS011;16482;51.046;4.498;2022-11-25T10:59:56;4.65;;;2.30;;
29538;SDS011;16482;51.046;4.498;2022-11-25T11:07:38;3.50;;;1.77;;
29538;SDS011;16482;51.046;4.498;2022-11-25T11:10:11;4.22;;;1.88;;
29538;SDS011;16482;51.046;4.498;2022-11-25T11:17:59;5.15;;;2.03;;
29538;SDS011;16482;51.046;4.498;2022-11-25T11:20:45;3.75;;;1.85;;
29538;SDS011;16482;51.046;4.498;2022-11-25T11:23:14;3.38;;;1.65;;
29538;SDS011;16482;51.046;4.498;2022-11-25T11:25:41;4.30;;;2.15;;
29538;SDS011;16482;51.046;4.498;2022-11-25T11:31:26;7.47;;;2.20;;
29538;SDS011;16482;51.046;4.498;2022-11-25T11:34:09;4.00;;;1.92;;
29538;SDS011;16482;51.046;4.498;2022-11-25T11:37:06;5.20;;;1.90;;
29538;SDS011;16482;51.046;4.498;2022-11-25T11:52:22;3.22;;;1.80;;
29538;SDS011;16482;51.046;4.498;2022-11-25T11:55:11;3.85;;;1.77;;
29538;SDS011;16482;51.046;4.498;2022-11-25T12:00:31;2.97;;;1.70;;
29538;SDS011;16482;51.046;4.498;2022-11-25T12:05:41;5.18;;;1.95;;
29538;SDS011;16482;51.046;4.498;2022-11-25T12:08:09;6.30;;;2.47;;
29538;SDS011;16482;51.046;4.498;2022-11-25T12:11:15;4.70;;;1.80;;
29538;SDS011;16482;51.046;4.498;2022-11-25T12:16:19;3.42;;;1.83;;
29538;SDS011;16482;51.046;4.498;2022-11-25T12:19:04;4.85;;;1.85;;
29538;SDS011;16482;51.046;4.498;2022-11-25T12:24:31;3.15;;;1.63;;
29538;SDS011;16482;51.046;4.498;2022-11-25T12:46:28;5.13;;;1.90;;
29538;SDS011;16482;51.046;4.498;2022-11-25T12:49:04;4.45;;;2.13;;
29538;SDS011;16482;51.046;4.498;2022-11-25T12:54:35;4.18;;;1.77;;
29538;SDS011;16482;51.046;4.498;2022-11-25T13:02:26;5.38;;;2.33;;
29538;SDS011;16482;51.046;4.498;2022-11-25T13:19:21;5.45;;;1.90;;
29538;SDS011;16482;51.046;4.498;2022-11-25T13:22:01;4.75;;;2.25;;
29538;SDS011;16482;51.046;4.498;2022-11-25T13:24:48;2.92;;;1.67;;
29538;SDS011;16482;51.046;4.498;2022-11-25T13:27:30;5.25;;;2.50;;
29538;SDS011;16482;51.046;4.498;2022-11-25T13:30:36;4.35;;;2.15;;
29538;SDS011;16482;51.046;4.498;2022-11-25T13:46:26;3.55;;;2.15;;
29538;SDS011;16482;51.046;4.498;2022-11-25T13:48:53;6.25;;;2.40;;
29538;SDS011;16482;51.046;4.498;2022-11-25T13:51:20;5.03;;;2.30;;
29538;SDS011;16482;51.046;4.498;2022-11-25T13:56:43;4.80;;;2.38;;
29538;SDS011;16482;51.046;4.498;2022-11-25T14:00:07;4.97;;;2.25;;
29538;SDS011;16482;51.046;4.498;2022-11-25T14:02:55;3.95;;;1.88;;
29538;SDS011;16482;51.046;4.498;2022-11-25T14:14:41;6.80;;;2.42;;
29538;SDS011;16482;51.046;4.498;2022-11-25T14:26:11;4.77;;;2.43;;
29538;SDS011;16482;51.046;4.498;2022-11-25T14:28:55;5.60;;;2.35;;
29538;SDS011;16482;51.046;4.498;2022-11-25T14:31:24;5.88;;;2.40;;
29538;SDS011;16482;51.046;4.498;2022-11-25T14:34:00;4.60;;;2.22;;
29538;SDS011;16482;51.046;4.498;2022-11-25T14:36:34;8.32;;;2.65;;
29538;SDS011;16482;51.046;4.498;2022-11-25T14:39:27;6.45;;;2.50;;
29538;SDS011;16482;51.046;4.498;2022-11-25T14:42:08;5.20;;;2.40;;
29538;SDS011;16482;51.046;4.498;2022-11-25T14:44:44;5.05;;;2.22;;
29538;SDS011;16482;51.046;4.498;2022-11-25T14:47:33;4.60;;;2.67;;
29538;SDS011;16482;51.046;4.498;2022-11-25T14:50:00;5.82;;;2.60;;
29538;SDS011;16482;51.046;4.498;2022-11-25T14:52:35;4.68;;;2.70;;
29538;SDS011;16482;51.046;4.498;2022-11-25T15:06:02;4.68;;;2.42;;
29538;SDS011;16482;51.046;4.498;2022-11-25T15:08:36;5.20;;;2.35;;
29538;SDS011;16482;51.046;4.498;2022-11-25T15:11:15;6.45;;;2.60;;
29538;SDS011;16482;51.046;4.498;2022-11-25T15:13:44;3.88;;;2.20;;
29538;SDS011;16482;51.046;4.498;2022-11-25T15:19:34;4.78;;;2.50;;
29538;SDS011;16482;51.046;4.498;2022-11-25T15:22:02;4.45;;;2.22;;
29538;SDS011;16482;51.046;4.498;2022-11-25T15:24:30;4.75;;;2.25;;
29538;SDS011;16482;51.046;4.498;2022-11-25T15:29:43;5.13;;;2.20;;
29538;SDS011;16482;51.046;4.498;2022-11-25T15:35:32;4.30;;;2.53;;
29538;SDS011;16482;51.046;4.498;2022-11-25T15:38:15;5.05;;;2.90;;
29538;SDS011;16482;51.046;4.498;2022-11-25T15:40:58;5.35;;;2.40;;
29538;SDS011;16482;51.046;4.498;2022-11-25T15:46:12;5.82;;;2.42;;
29538;SDS011;16482;51.046;4.498;2022-11-25T15:48:40;4.28;;;2.40;;
29538;SDS011;16482;51.046;4.498;2022-11-25T15:54:41;5.75;;;2.35;;
29538;SDS011;16482;51.046;4.498;2022-11-25T15:57:34;5.82;;;2.50;;
29538;SDS011;16482;51.046;4.498;2022-11-25T16:00:12;6.28;;;2.72;;
29538;SDS011;16482;51.046;4.498;2022-11-25T16:13:31;5.82;;;2.50;;
29538;SDS011;16482;51.046;4.498;2022-11-25T16:26:58;6.32;;;2.60;;
29538;SDS011;16482;51.046;4.498;2022-11-25T16:29:46;5.20;;;2.42;;
29538;SDS011;16482;51.046;4.498;2022-11-25T16:32:15;5.82;;;2.63;;
29538;SDS011;16482;51.046;4.498;2022-11-25T16:37:50;4.35;;;2.40;;
29538;SDS011;16482;51.046;4.498;2022-11-25T16:40:24;3.55;;;2.30;;
29538;SDS011;16482;51.046;4.498;2022-11-25T16:46:02;3.97;;;2.45;;
29538;SDS011;16482;51.046;4.498;2022-11-25T16:49:12;4.40;;;2.30;;
29538;SDS011;16482;51.046;4.498;2022-11-25T16:54:50;4.13;;;2.30;;
29538;SDS011;16482;51.046;4.498;2022-11-25T16:57:16;4.28;;;2.58;;
29538;SDS011;16482;51.046;4.498;2022-11-25T17:02:36;4.90;;;2.65;;
29538;SDS011;16482;51.046;4.498;2022-11-25T17:05:13;4.97;;;2.40;;
29538;SDS011;16482;51.046;4.498;2022-11-25T17:07:47;4.72;;;2.50;;
29538;SDS011;16482;51.046;4.498;2022-11-25T17:10:16;5.72;;;2.65;;
29538;SDS011;16482;51.046;4.498;2022-11-25T17:15:33;5.30;;;2.90;;
29538;SDS011;16482;51.046;4.498;2022-11-25T17:18:02;3.75;;;2.20;;
29538;SDS011;16482;51.046;4.498;2022-11-25T17:20:31;3.47;;;2.20;;
29538;SDS011;16482;51.046;4.498;2022-11-25T17:22:57;5.13;;;2.50;;
29538;SDS011;16482;51.046;4.498;2022-11-25T17:25:24;5.50;;;2.80;;
29538;SDS011;16482;51.046;4.498;2022-11-25T17:31:13;5.20;;;2.72;;
29538;SDS011;16482;51.046;4.498;2022-11-25T17:33:39;5.40;;;2.42;;
29538;SDS011;16482;51.046;4.498;2022-11-25T17:36:10;5.30;;;2.53;;
29538;SDS011;16482;51.046;4.498;2022-11-25T17:38:36;5.32;;;2.50;;
29538;SDS011;16482;51.046;4.498;2022-11-25T17:41:04;6.25;;;2.63;;
29538;SDS011;16482;51.046;4.498;2022-11-25T17:43:37;5.63;;;2.80;;
29538;SDS011;16482;51.046;4.498;2022-11-25T17:46:03;5.35;;;2.63;;
29538;SDS011;16482;51.046;4.498;2022-11-25T17:48:29;4.63;;;2.45;;
29538;SDS011;16482;51.046;4.498;2022-11-25T17:54:17;6.55;;;2.90;;
29538;SDS011;16482;51.046;4.498;2022-11-25T17:56:44;4.68;;;2.58;;
29538;SDS011;16482;51.046;4.498;2022-11-25T18:03:16;5.53;;;2.60;;
29538;SDS011;16482;51.046;4.498;2022-11-25T18:05:41;5.32;;;2.95;;
29538;SDS011;16482;51.046;4.498;2022-11-25T18:08:09;5.18;;;2.65;;
29538;SDS011;16482;51.046;4.498;2022-11-25T18:10:35;5.18;;;2.70;;
29538;SDS011;16482;51.046;4.498;2022-11-25T18:13:02;5.18;;;3.03;;
29538;SDS011;16482;51.046;4.498;2022-11-25T18:15:30;5.55;;;2.45;;
29538;SDS011;16482;51.046;4.498;2022-11-25T18:18:02;5.93;;;2.58;;
29538;SDS011;16482;51.046;4.498;2022-11-25T18:20:30;4.93;;;2.70;;
29538;SDS011;16482;51.046;4.498;2022-11-25T18:26:03;5.18;;;2.60;;
29538;SDS011;16482;51.046;4.498;2022-11-25T18:28:29;5.88;;;3.00;;
29538;SDS011;16482;51.046;4.498;2022-11-25T18:31:00;4.78;;;2.67;;
29538;SDS011;16482;51.046;4.498;2022-11-25T18:33:28;5.60;;;3.40;;
29538;SDS011;16482;51.046;4.498;2022-11-25T18:36:03;5.72;;;3.30;;
29538;SDS011;16482;51.046;4.498;2022-11-25T18:38:29;4.97;;;2.65;;
29538;SDS011;16482;51.046;4.498;2022-11-25T18:40:55;4.68;;;3.15;;
29538;SDS011;16482;51.046;4.498;2022-11-25T18:43:32;5.22;;;3.08;;
29538;SDS011;16482;51.046;4.498;2022-11-25T18:46:01;5.40;;;3.13;;
29538;SDS011;16482;51.046;4.498;2022-11-25T18:48:29;6.07;;;3.72;;
29538;SDS011;16482;51.046;4.498;2022-11-25T18:50:56;4.88;;;3.55;;
29538;SDS011;16482;51.046;4.498;2022-11-25T18:53:29;6.38;;;3.95;;
29538;SDS011;16482;51.046;4.498;2022-11-25T18:59:00;6.05;;;3.40;;
29538;SDS011;16482;51.046;4.498;2022-11-25T19:04:22;5.65;;;3.33;;
29538;SDS011;16482;51.046;4.498;2022-11-25T19:06:48;4.88;;;3.30;;
29538;SDS011;16482;51.046;4.498;2022-11-25T19:12:19;5.57;;;3.58;;
29538;SDS011;16482;51.046;4.498;2022-11-25T19:17:41;4.80;;;3.40;;
29538;SDS011;16482;51.046;4.498;2022-11-25T19:20:19;8.18;;;3.58;;
29538;SDS011;16482;51.046;4.498;2022-11-25T19:22:46;5.60;;;3.67;;
29538;SDS011;16482;51.046;4.498;2022-11-25T19:25:12;5.47;;;3.45;;
29538;SDS011;16482;51.046;4.498;2022-11-25T19:27:41;6.28;;;3.47;;
29538;SDS011;16482;51.046;4.498;2022-11-25T19:30:18;5.75;;;3.55;;
29538;SDS011;16482;51.046;4.498;2022-11-25T19:36:11;7.03;;;3.45;;
29538;SDS011;16482;51.046;4.498;2022-11-25T19:38:51;4.05;;;3.05;;
29538;SDS011;16482;51.046;4.498;2022-11-25T19:44:04;5.30;;;3.55;;
29538;SDS011;16482;51.046;4.498;2022-11-25T19:46:30;4.97;;;3.05;;
29538;SDS011;16482;51.046;4.498;2022-11-25T19:48:58;5.05;;;3.42;;
29538;SDS011;16482;51.046;4.498;2022-11-25T19:51:26;6.28;;;3.72;;
29538;SDS011;16482;51.046;4.498;2022-11-25T19:53:55;4.70;;;3.28;;
29538;SDS011;16482;51.046;4.498;2022-11-25T19:56:21;6.28;;;3.58;;
29538;SDS011;16482;51.046;4.498;2022-11-25T19:58:48;5.55;;;3.42;;
29538;SDS011;16482;51.046;4.498;2022-11-25T20:01:16;7.10;;;3.83;;
29538;SDS011;16482;51.046;4.498;2022-11-25T20:03:45;6.78;;;3.90;;
29538;SDS011;16482;51.046;4.498;2022-11-25T20:06:15;6.35;;;3.72;;
29538;SDS011;16482;51.046;4.498;2022-11-25T20:08:43;4.82;;;3.35;;
29538;SDS011;16482;51.046;4.498;2022-11-25T20:11:13;4.85;;;3.38;;
29538;SDS011;16482;51.046;4.498;2022-11-25T20:13:40;5.82;;;3.55;;
29538;SDS011;16482;51.046;4.498;2022-11-25T20:19:16;5.10;;;4.00;;
29538;SDS011;16482;51.046;4.498;2022-11-25T20:21:45;7.95;;;3.97;;
29538;SDS011;16482;51.046;4.498;2022-11-25T20:24:21;5.75;;;3.38;;
29538;SDS011;16482;51.046;4.498;2022-11-25T20:26:50;6.70;;;3.70;;
29538;SDS011;16482;51.046;4.498;2022-11-25T20:29:18;5.72;;;3.50;;
29538;SDS011;16482;51.046;4.498;2022-11-25T20:37:52;7.07;;;3.95;;
29538;SDS011;16482;51.046;4.498;2022-11-25T20:43:29;6.63;;;4.38;;
29538;SDS011;16482;51.046;4.498;2022-11-25T20:45:59;5.25;;;3.47;;
29538;SDS011;16482;51.046;4.498;2022-11-25T20:48:27;6.53;;;4.30;;
29538;SDS011;16482;51.046;4.498;2022-11-25T20:53:58;6.20;;;3.85;;
29538;SDS011;16482;51.046;4.498;2022-11-25T20:59:20;6.68;;;4.38;;
29538;SDS011;16482;51.046;4.498;2022-11-25T21:01:48;9.80;;;4.20;;
29538;SDS011;16482;51.046;4.498;2022-11-25T21:04:14;6.00;;;4.43;;
29538;SDS011;16482;51.046;4.498;2022-11-25T21:06:44;6.40;;;4.03;;
29538;SDS011;16482;51.046;4.498;2022-11-25T21:09:21;6.13;;;4.32;;
29538;SDS011;16482;51.046;4.498;2022-11-25T21:11:51;6.57;;;4.68;;
29538;SDS011;16482;51.046;4.498;2022-11-25T21:14:19;6.43;;;4.00;;
29538;SDS011;16482;51.046;4.498;2022-11-25T21:16:50;6.10;;;4.35;;
29538;SDS011;16482;51.046;4.498;2022-11-25T21:19:18;6.88;;;4.60;;
29538;SDS011;16482;51.046;4.498;2022-11-25T21:21:48;6.57;;;4.40;;
29538;SDS011;16482;51.046;4.498;2022-11-25T21:26:52;6.15;;;4.10;;
29538;SDS011;16482;51.046;4.498;2022-11-25T21:29:20;7.20;;;4.32;;
29538;SDS011;16482;51.046;4.498;2022-11-25T21:31:52;6.00;;;4.22;;
29538;SDS011;16482;51.046;4.498;2022-11-25T21:34:18;7.07;;;4.70;;
29538;SDS011;16482;51.046;4.498;2022-11-25T21:36:51;6.95;;;4.55;;
29538;SDS011;16482;51.046;4.498;2022-11-25T21:44:52;6.55;;;4.05;;
29538;SDS011;16482;51.046;4.498;2022-11-25T21:47:21;4.68;;;3.72;;
29538;SDS011;16482;51.046;4.498;2022-11-25T21:49:49;6.38;;;4.28;;
29538;SDS011;16482;51.046;4.498;2022-11-25T21:55:02;6.63;;;3.95;;
29538;SDS011;16482;51.046;4.498;2022-11-25T21:57:29;7.35;;;4.47;;
29538;SDS011;16482;51.046;4.498;2022-11-25T21:59:55;5.65;;;3.88;;
29538;SDS011;16482;51.046;4.498;2022-11-25T22:05:12;6.95;;;4.32;;
29538;SDS011;16482;51.046;4.498;2022-11-25T22:07:41;7.18;;;4.57;;